createdAt,value
2018-08-13T00:00:15.294Z,52.78
2018-08-13T00:01:15.314Z,51.24
2018-08-13T00:02:15.327Z,50.57
2018-08-13T00:03:15.340Z,52.78
2018-08-13T00:04:15.357Z,51.24
2018-08-13T00:05:15.373Z,51.14
2018-08-13T00:06:15.389Z,51.43
2018-08-13T00:07:15.855Z,51.34
2018-08-13T00:08:16.082Z,52.49
2018-08-13T00:09:15.438Z,52.40
2018-08-13T00:10:15.456Z,51.24
2018-08-13T00:11:15.470Z,50.66
2018-08-13T00:12:15.495Z,50.66
2018-08-13T00:13:15.505Z,50.95
2018-08-13T00:14:15.521Z,51.53
2018-08-13T00:15:15.535Z,51.43
2018-08-13T00:16:15.551Z,51.14
2018-08-13T00:17:15.572Z,52.97
2018-08-13T00:18:15.597Z,52.01
2018-08-13T00:19:15.602Z,51.43
2018-08-13T00:20:15.619Z,52.49
2018-08-13T00:21:15.634Z,51.05
2018-08-13T00:22:15.650Z,50.47
2018-08-13T00:23:15.669Z,49.99
2018-08-13T00:24:15.684Z,50.57
2018-08-13T00:25:15.699Z,50.76
2018-08-13T00:26:15.717Z,50.47
2018-08-13T00:27:15.731Z,51.05
2018-08-13T00:28:15.751Z,50.37
2018-08-13T00:29:15.763Z,50.37
2018-08-13T00:30:15.779Z,50.57
2018-08-13T00:31:15.795Z,50.09
2018-08-13T00:32:15.812Z,52.69
2018-08-13T00:33:15.830Z,51.53
2018-08-13T00:34:15.845Z,52.11
2018-08-13T00:35:15.861Z,52.40
2018-08-13T00:36:15.879Z,50.57
2018-08-13T00:37:15.894Z,50.85
2018-08-13T00:38:15.912Z,50.45
2018-08-13T00:39:16.058Z,50.85
2018-08-13T00:40:16.063Z,51.43
2018-08-13T00:41:15.960Z,52.08
2018-08-13T00:42:15.975Z,50.57
2018-08-13T00:43:15.993Z,52.20
2018-08-13T00:44:16.007Z,50.95
2018-08-13T00:45:16.028Z,51.05
2018-08-13T00:46:16.039Z,52.20
2018-08-13T00:47:16.057Z,51.43
2018-08-13T00:48:16.072Z,51.62
2018-08-13T00:49:16.108Z,52.69
2018-08-13T00:50:16.105Z,52.78
2018-08-13T00:51:16.131Z,53.55
2018-08-13T00:52:16.138Z,51.82
2018-08-13T00:53:16.156Z,51.53
2018-08-13T00:54:16.169Z,52.56
2018-08-13T00:55:16.187Z,52.85
2018-08-13T00:56:16.202Z,52.47
2018-08-13T00:57:16.218Z,51.50
2018-08-13T00:58:16.233Z,51.79
2018-08-13T00:59:16.263Z,51.41
2018-08-13T01:00:16.265Z,50.83
2018-08-13T01:01:16.286Z,50.83
2018-08-13T01:02:16.303Z,50.63
2018-08-13T01:03:16.318Z,50.83
2018-08-13T01:04:16.333Z,51.50
2018-08-13T01:05:16.352Z,51.41
2018-08-13T01:06:16.363Z,53.62
2018-08-13T01:07:16.380Z,52.66
2018-08-13T01:08:16.402Z,51.21
2018-08-13T01:09:16.414Z,51.31
2018-08-13T01:10:16.430Z,51.79
2018-08-13T01:11:16.445Z,52.37
2018-08-13T01:12:16.460Z,51.82
2018-08-13T01:13:16.477Z,49.99
2018-08-13T01:14:16.648Z,49.87
2018-08-13T01:15:16.659Z,49.68
2018-08-13T01:16:16.576Z,50.06
2018-08-13T01:17:16.553Z,49.87
2018-08-13T01:18:16.562Z,50.25
2018-08-13T01:19:16.574Z,49.77
2018-08-13T01:20:16.590Z,50.54
2018-08-13T01:21:16.607Z,50.25
2018-08-13T01:22:16.623Z,49.48
2018-08-13T01:23:16.637Z,49.68
2018-08-13T01:24:16.668Z,50.63
2018-08-13T01:25:16.676Z,50.54
2018-08-13T01:26:16.686Z,50.63
2018-08-13T01:27:16.703Z,50.45
2018-08-13T01:28:16.720Z,50.54
2018-08-13T01:29:16.741Z,51.89
2018-08-13T01:30:16.750Z,50.63
2018-08-13T01:31:16.772Z,50.25
2018-08-13T01:32:16.786Z,49.77
2018-08-13T01:33:16.802Z,50.35
2018-08-13T01:34:16.815Z,52.66
2018-08-13T01:35:16.831Z,49.68
2018-08-13T01:36:16.850Z,49.68
2018-08-13T01:37:16.868Z,50.25
2018-08-13T01:38:16.881Z,50.15
2018-08-13T01:39:16.903Z,50.93
2018-08-13T01:40:16.914Z,50.93
2018-08-13T01:41:16.929Z,50.35
2018-08-13T01:42:16.944Z,50.63
2018-08-13T01:43:16.961Z,49.68
2018-08-13T01:44:16.978Z,49.68
2018-08-13T01:45:16.994Z,50.73
2018-08-13T01:46:17.010Z,49.87
2018-08-13T01:47:17.138Z,49.96
2018-08-13T01:48:17.259Z,50.73
2018-08-13T01:49:17.616Z,49.87
2018-08-13T01:50:17.217Z,49.65
2018-08-13T01:51:17.089Z,49.65
2018-08-13T01:52:17.110Z,49.74
2018-08-13T01:53:17.121Z,50.13
2018-08-13T01:54:17.139Z,49.65
2018-08-13T01:55:17.160Z,49.74
2018-08-13T01:56:17.171Z,50.51
2018-08-13T01:57:17.185Z,50.90
2018-08-13T01:58:17.202Z,50.23
2018-08-13T01:59:17.217Z,49.94
2018-08-13T02:00:17.234Z,50.51
2018-08-13T02:01:17.315Z,49.94
2018-08-13T02:02:17.269Z,50.42
2018-08-13T02:03:17.291Z,51.38
2018-08-13T02:04:17.305Z,52.63
2018-08-13T02:05:17.315Z,51.48
2018-08-13T02:06:17.330Z,51.96
2018-08-13T02:07:17.348Z,50.42
2018-08-13T02:08:17.367Z,51.09
2018-08-13T02:09:17.379Z,51.09
2018-08-13T02:10:17.396Z,51.48
2018-08-13T02:11:17.410Z,51.48
2018-08-13T02:12:17.435Z,50.83
2018-08-13T02:13:17.452Z,50.35
2018-08-13T02:14:17.459Z,50.63
2018-08-13T02:15:17.475Z,51.31
2018-08-13T02:16:17.491Z,50.71
2018-08-13T02:17:17.508Z,51.48
2018-08-13T02:18:17.529Z,51.38
2018-08-13T02:19:17.541Z,52.34
2018-08-13T02:20:17.557Z,51.29
2018-08-13T02:21:17.573Z,51.19
2018-08-13T02:22:17.741Z,51.19
2018-08-13T02:23:17.730Z,52.06
2018-08-13T02:24:17.639Z,52.75
2018-08-13T02:25:17.635Z,51.76
2018-08-13T02:26:17.652Z,51.67
2018-08-13T02:27:17.667Z,51.48
2018-08-13T02:28:17.683Z,52.34
2018-08-13T02:29:17.700Z,51.67
2018-08-13T02:30:17.716Z,51.38
2018-08-13T02:31:17.735Z,51.57
2018-08-13T02:32:17.748Z,51.57
2018-08-13T02:33:17.765Z,51.86
2018-08-13T02:34:17.778Z,52.54
2018-08-13T02:35:17.796Z,53.21
2018-08-13T02:36:17.812Z,52.06
2018-08-13T02:37:17.835Z,52.06
2018-08-13T02:38:17.848Z,52.63
2018-08-13T02:39:17.937Z,52.25
2018-08-13T02:40:17.879Z,52.44
2018-08-13T02:41:17.897Z,52.34
2018-08-13T02:42:17.907Z,52.92
2018-08-13T02:43:17.928Z,52.25
2018-08-13T02:44:17.940Z,52.73
2018-08-13T02:45:17.957Z,53.21
2018-08-13T02:46:17.975Z,52.63
2018-08-13T02:47:18.038Z,52.54
2018-08-13T02:48:18.005Z,52.06
2018-08-13T02:49:18.020Z,52.44
2018-08-13T02:50:18.036Z,52.44
2018-08-13T02:51:18.101Z,53.50
2018-08-13T02:52:18.126Z,53.02
2018-08-13T02:53:18.382Z,52.92
2018-08-13T02:54:18.155Z,53.31
2018-08-13T02:55:18.117Z,54.08
2018-08-13T02:56:18.140Z,54.27
2018-08-13T02:57:18.151Z,54.17
2018-08-13T02:58:18.187Z,53.78
2018-08-13T02:59:18.179Z,53.40
2018-08-13T03:00:18.195Z,54.75
2018-08-13T03:01:18.231Z,54.27
2018-08-13T03:02:18.249Z,55.04
2018-08-13T03:03:18.270Z,54.65
2018-08-13T03:04:18.263Z,54.46
2018-08-13T03:05:18.275Z,54.94
2018-08-13T03:06:18.295Z,54.17
2018-08-13T03:07:18.320Z,54.36
2018-08-13T03:08:18.324Z,55.81
2018-08-13T03:09:18.344Z,54.85
2018-08-13T03:10:18.355Z,54.65
2018-08-13T03:11:18.371Z,54.17
2018-08-13T03:12:18.390Z,53.88
2018-08-13T03:13:18.410Z,54.85
2018-08-13T03:14:18.435Z,54.36
2018-08-13T03:15:18.438Z,54.17
2018-08-13T03:16:18.453Z,54.46
2018-08-13T03:17:18.469Z,53.98
2018-08-13T03:18:18.502Z,54.94
2018-08-13T03:19:18.505Z,54.65
2018-08-13T03:20:18.518Z,54.27
2018-08-13T03:21:18.540Z,54.85
2018-08-13T03:22:18.552Z,55.33
2018-08-13T03:23:18.569Z,55.04
2018-08-13T03:24:18.581Z,53.98
2018-08-13T03:25:18.611Z,54.85
2018-08-13T03:26:18.623Z,54.94
2018-08-13T03:27:18.667Z,54.94
2018-08-13T03:28:18.767Z,54.65
2018-08-13T03:29:18.667Z,54.94
2018-08-13T03:30:18.675Z,55.04
2018-08-13T03:31:18.692Z,55.52
2018-08-13T03:32:18.718Z,55.43
2018-08-13T03:33:18.771Z,55.43
2018-08-13T03:34:18.743Z,55.33
2018-08-13T03:35:18.756Z,56.20
2018-08-13T03:36:18.777Z,56.58
2018-08-13T03:37:18.816Z,55.62
2018-08-13T03:38:18.829Z,54.82
2018-08-13T03:39:18.819Z,54.82
2018-08-13T03:40:18.837Z,55.20
2018-08-13T03:41:18.852Z,55.68
2018-08-13T03:42:18.873Z,55.20
2018-08-13T03:43:18.883Z,56.07
2018-08-13T03:44:18.901Z,56.07
2018-08-13T03:45:18.922Z,57.03
2018-08-13T03:46:18.929Z,56.84
2018-08-13T03:47:18.947Z,56.07
2018-08-13T03:48:18.991Z,55.59
2018-08-13T03:49:18.978Z,55.68
2018-08-13T03:50:18.997Z,55.98
2018-08-13T03:51:19.008Z,55.98
2018-08-13T03:52:19.029Z,55.98
2018-08-13T03:53:19.067Z,56.26
2018-08-13T03:54:19.064Z,57.13
2018-08-13T03:55:19.079Z,57.22
2018-08-13T03:56:19.092Z,56.45
2018-08-13T03:57:19.109Z,56.07
2018-08-13T03:58:19.121Z,55.78
2018-08-13T03:59:19.139Z,56.45
2018-08-13T04:00:19.165Z,56.04
2018-08-13T04:01:19.175Z,56.81
2018-08-13T04:02:19.341Z,57.00
2018-08-13T04:03:19.514Z,57.39
2018-08-13T04:04:19.311Z,57.48
2018-08-13T04:05:19.291Z,57.29
2018-08-13T04:06:19.404Z,57.48
2018-08-13T04:07:19.265Z,57.48
2018-08-13T04:08:19.280Z,57.77
2018-08-13T04:09:19.320Z,57.39
2018-08-13T04:10:19.368Z,58.54
2018-08-13T04:11:19.336Z,57.48
2018-08-13T04:12:19.347Z,57.42
2018-08-13T04:13:19.388Z,56.93
2018-08-13T04:14:19.380Z,57.60
2018-08-13T04:15:19.391Z,57.60
2018-08-13T04:16:19.408Z,57.32
2018-08-13T04:17:19.423Z,57.22
2018-08-13T04:18:19.445Z,58.57
2018-08-13T04:19:19.456Z,57.70
2018-08-13T04:20:19.468Z,57.32
2018-08-13T04:21:19.479Z,57.32
2018-08-13T04:22:19.494Z,57.90
2018-08-13T04:24:19.527Z,57.51
2018-08-13T04:25:19.547Z,57.13
2018-08-13T04:26:19.558Z,57.22
2018-08-13T04:27:19.576Z,57.51
2018-08-13T04:28:19.590Z,57.60
2018-08-13T04:29:19.607Z,57.32
2018-08-13T04:30:19.677Z,58.28
2018-08-13T04:31:19.638Z,57.60
2018-08-13T04:32:19.657Z,57.42
2018-08-13T04:33:19.672Z,57.90
2018-08-13T04:34:19.693Z,57.60
2018-08-13T04:35:19.701Z,57.60
2018-08-13T04:36:19.777Z,57.83
2018-08-13T04:37:19.855Z,56.67
2018-08-13T04:38:21.551Z,56.77
2018-08-13T04:39:19.768Z,56.10
2018-08-13T04:40:19.806Z,56.26
2018-08-13T04:41:19.797Z,57.51
2018-08-13T04:42:19.821Z,57.92
2018-08-13T04:43:19.890Z,57.06
2018-08-13T04:44:19.851Z,56.67
2018-08-13T04:45:20.077Z,57.92
2018-08-13T04:46:19.876Z,57.54
2018-08-13T04:47:19.894Z,57.35
2018-08-13T04:48:19.911Z,57.45
2018-08-13T04:49:19.928Z,57.15
2018-08-13T04:50:19.945Z,57.15
2018-08-13T04:51:19.955Z,57.35
2018-08-13T04:52:19.972Z,57.35
2018-08-13T04:53:20.033Z,56.87
2018-08-13T04:54:20.309Z,56.58
2018-08-13T04:55:20.044Z,56.00
2018-08-13T04:56:20.045Z,56.38
2018-08-13T04:57:20.254Z,56.77
2018-08-13T04:58:20.068Z,57.15
2018-08-13T05:00:20.105Z,57.73
2018-08-13T05:01:20.121Z,58.60
2018-08-13T05:02:20.133Z,56.67
2018-08-13T05:03:20.146Z,57.54
2018-08-13T05:04:20.168Z,58.79
2018-08-13T05:05:20.225Z,57.25
2018-08-13T05:06:20.197Z,56.96
2018-08-13T05:07:20.627Z,57.54
2018-08-13T05:08:20.807Z,57.45
2018-08-13T05:09:20.261Z,57.25
2018-08-13T05:10:20.258Z,57.06
2018-08-13T05:11:20.278Z,57.83
2018-08-13T05:12:20.289Z,57.42
2018-08-13T05:13:20.308Z,57.60
2018-08-13T05:14:20.439Z,58.28
2018-08-13T05:15:20.819Z,58.37
2018-08-13T05:16:20.358Z,58.09
2018-08-13T05:18:20.387Z,59.08
2018-08-13T05:19:20.874Z,58.57
2018-08-13T05:20:20.946Z,58.67
2018-08-13T05:22:21.759Z,58.47
2018-08-13T05:23:20.626Z,58.70
2018-08-13T05:24:20.481Z,59.08
2018-08-13T05:26:20.614Z,58.50
2018-08-13T05:27:20.592Z,58.40
2018-08-13T05:28:20.553Z,58.40
2018-08-13T05:29:20.566Z,58.40
2018-08-13T05:30:20.647Z,58.12
2018-08-13T05:31:22.079Z,58.60
2018-08-13T05:32:20.607Z,58.60
2018-08-13T05:33:20.624Z,58.31
2018-08-13T05:34:20.645Z,59.47
2018-08-13T05:35:20.665Z,58.50
2018-08-13T05:36:20.676Z,58.40
2018-08-13T05:37:20.688Z,58.31
2018-08-13T05:38:20.803Z,58.40
2018-08-13T05:39:20.767Z,57.73
2018-08-13T05:40:20.750Z,57.92
2018-08-13T05:41:20.752Z,58.22
2018-08-13T05:42:20.873Z,58.70
2018-08-13T05:43:20.943Z,58.22
2018-08-13T05:44:21.329Z,58.50
2018-08-13T05:45:20.821Z,57.67
2018-08-13T05:46:20.836Z,57.76
2018-08-13T05:47:20.847Z,57.76
2018-08-13T05:48:20.865Z,58.53
2018-08-13T05:49:20.883Z,58.15
2018-08-13T05:50:20.996Z,57.67
2018-08-13T05:51:20.915Z,57.86
2018-08-13T05:52:21.056Z,57.37
2018-08-13T05:53:21.414Z,56.41
2018-08-13T05:54:20.957Z,55.83
2018-08-13T05:55:20.974Z,56.70
2018-08-13T05:56:21.242Z,56.41
2018-08-13T05:57:22.930Z,55.35
2018-08-13T05:58:21.878Z,56.35
2018-08-13T05:59:21.247Z,56.22
2018-08-13T06:00:22.618Z,55.93
2018-08-13T06:01:22.289Z,56.03
2018-08-13T06:02:21.179Z,57.02
2018-08-13T06:03:21.323Z,56.63
2018-08-13T06:04:21.249Z,57.40
2018-08-13T06:05:21.147Z,56.73
2018-08-13T06:06:21.157Z,56.15
2018-08-13T06:07:21.306Z,56.82
2018-08-13T06:08:21.189Z,56.82
2018-08-13T06:09:21.199Z,56.63
2018-08-13T06:10:21.216Z,56.05
2018-08-13T06:11:21.474Z,56.25
2018-08-13T06:12:21.248Z,56.03
2018-08-13T06:13:21.263Z,55.74
2018-08-13T06:14:21.382Z,57.67
2018-08-13T06:15:21.333Z,57.47
2018-08-13T06:16:22.117Z,56.82
2018-08-13T06:17:21.328Z,56.63
2018-08-13T06:18:21.352Z,57.69
2018-08-13T06:19:21.427Z,57.86
2018-08-13T06:20:21.733Z,57.67
2018-08-13T06:21:21.717Z,59.11
2018-08-13T06:22:21.625Z,58.92
2018-08-13T06:24:21.831Z,60.75
2018-08-13T06:25:21.457Z,60.27
2018-08-13T06:26:21.476Z,60.84
2018-08-13T06:27:21.490Z,61.42
2018-08-13T06:28:21.503Z,61.32
2018-08-13T06:29:21.527Z,60.58
2018-08-13T06:30:21.655Z,60.49
2018-08-13T06:32:21.575Z,61.25
2018-08-13T06:34:22.007Z,61.65
2018-08-13T06:35:21.749Z,61.35
2018-08-13T06:36:22.518Z,62.29
2018-08-13T06:37:22.008Z,62.09
2018-08-13T06:38:21.705Z,61.71
2018-08-13T06:39:23.065Z,61.52
2018-08-13T06:40:21.878Z,62.57
2018-08-13T06:41:21.829Z,62.29
2018-08-13T06:42:21.827Z,62.87
2018-08-13T06:43:22.694Z,62.87
2018-08-13T06:44:22.767Z,62.96
2018-08-13T06:45:21.900Z,62.41
2018-08-13T06:46:22.091Z,62.90
2018-08-13T06:47:21.865Z,62.70
2018-08-13T06:48:22.482Z,62.60
2018-08-13T06:49:22.148Z,62.90
2018-08-13T06:50:22.480Z,63.28
2018-08-13T06:51:22.208Z,62.99
2018-08-13T06:52:22.079Z,63.76
2018-08-13T06:53:21.903Z,63.95
2018-08-13T06:54:22.394Z,64.15
2018-08-13T06:55:22.000Z,64.34
2018-08-13T06:56:22.073Z,64.25
2018-08-13T06:57:21.972Z,64.25
2018-08-13T06:58:21.988Z,64.25
2018-08-13T06:59:22.178Z,64.92
2018-08-13T07:00:22.116Z,65.01
2018-08-13T07:01:22.043Z,65.40
2018-08-13T07:02:23.852Z,66.07
2018-08-13T07:03:22.082Z,65.85
2018-08-13T07:05:22.124Z,66.85
2018-08-13T07:06:22.316Z,67.23
2018-08-13T07:07:22.482Z,67.03
2018-08-13T07:08:22.261Z,67.90
2018-08-13T07:09:22.280Z,67.16
2018-08-13T07:10:22.180Z,67.65
2018-08-13T07:11:22.195Z,68.04
2018-08-13T07:12:22.210Z,67.94
2018-08-13T07:13:22.443Z,68.52
2018-08-13T07:14:22.293Z,68.61
2018-08-13T07:16:22.428Z,68.23
2018-08-13T07:17:22.648Z,68.52
2018-08-13T07:19:22.985Z,68.87
2018-08-13T07:20:22.419Z,69.25
2018-08-13T07:21:22.373Z,69.64
2018-08-13T07:23:23.561Z,69.35
2018-08-13T07:24:23.316Z,69.35
2018-08-13T07:25:22.620Z,69.93
2018-08-13T07:26:22.441Z,69.73
2018-08-13T07:27:23.916Z,69.83
2018-08-13T07:28:22.565Z,70.21
2018-08-13T07:29:23.207Z,70.79
2018-08-13T07:30:22.924Z,71.37
2018-08-13T07:31:22.518Z,72.43
2018-08-13T07:32:23.100Z,73.49
2018-08-13T07:33:22.616Z,73.39
2018-08-13T07:34:22.950Z,73.55
2018-08-13T07:35:22.840Z,73.94
2018-08-13T07:36:22.830Z,74.22
2018-08-13T07:37:22.952Z,76.06
2018-08-13T07:38:23.112Z,76.34
2018-08-13T07:39:22.966Z,76.34
2018-08-13T07:40:22.785Z,77.21
2018-08-13T07:41:23.485Z,77.31
2018-08-13T07:42:22.955Z,77.31
2018-08-13T07:43:22.818Z,78.27
2018-08-13T07:44:23.148Z,78.94
2018-08-13T07:46:22.863Z,79.90
2018-08-13T07:47:22.914Z,81.16
2018-08-13T07:48:22.811Z,81.73
2018-08-13T07:49:22.930Z,81.63
2018-08-13T07:50:23.399Z,80.87
2018-08-13T07:51:23.024Z,80.96
2018-08-13T07:52:23.001Z,80.38
2018-08-13T07:54:23.563Z,82.21
2018-08-13T07:55:23.010Z,81.45
2018-08-13T07:56:23.075Z,81.73
2018-08-13T07:57:23.825Z,82.98
2018-08-13T07:58:23.312Z,82.02
2018-08-13T07:59:22.977Z,81.77
2018-08-13T08:00:22.981Z,81.87
2018-08-13T08:01:22.994Z,81.77
2018-08-13T08:02:23.008Z,81.10
2018-08-13T08:03:23.401Z,81.24
2018-08-13T08:04:23.561Z,82.49
2018-08-13T08:05:23.312Z,80.76
2018-08-13T08:06:23.529Z,81.04
2018-08-13T08:07:23.241Z,80.27
2018-08-13T08:08:24.069Z,80.08
2018-08-13T08:12:03.374Z,80.08
2018-08-13T08:13:03.385Z,79.89
2018-08-13T08:14:03.398Z,79.69
2018-08-13T08:15:03.416Z,80.18
2018-08-13T08:16:03.448Z,80.27
2018-08-13T08:17:03.448Z,80.66
2018-08-13T08:18:03.465Z,80.76
2018-08-13T08:19:03.489Z,80.56
2018-08-13T08:20:03.497Z,80.76
2018-08-13T08:21:03.763Z,80.76
2018-08-13T08:22:03.597Z,80.37
2018-08-13T08:23:03.753Z,79.41
2018-08-13T08:24:03.650Z,80.37
2018-08-13T08:25:04.093Z,80.37
2018-08-13T08:26:03.634Z,80.08
2018-08-13T08:27:03.619Z,80.85
2018-08-13T08:28:03.638Z,80.12
2018-08-13T08:29:03.701Z,80.41
2018-08-13T08:30:03.673Z,80.69
2018-08-13T08:31:03.693Z,79.83
2018-08-13T08:32:03.705Z,80.41
2018-08-13T08:33:03.725Z,79.44
2018-08-13T08:34:04.163Z,79.74
2018-08-13T08:35:03.759Z,79.41
2018-08-13T08:36:03.781Z,80.94
2018-08-13T08:37:03.797Z,80.94
2018-08-13T08:38:03.880Z,80.08
2018-08-13T08:39:03.897Z,80.27
2018-08-13T08:40:03.849Z,81.18
2018-08-13T08:41:03.869Z,81.76
2018-08-13T08:42:03.891Z,80.69
2018-08-13T08:43:03.901Z,80.18
2018-08-13T08:44:03.934Z,80.22
2018-08-13T08:45:03.955Z,80.51
2018-08-13T08:46:04.018Z,81.47
2018-08-13T08:47:04.001Z,80.85
2018-08-13T08:48:04.303Z,81.14
2018-08-13T08:49:04.009Z,81.52
2018-08-13T08:50:04.031Z,80.94
2018-08-13T08:51:04.048Z,80.76
2018-08-13T08:52:04.066Z,80.85
2018-08-13T08:53:04.086Z,80.85
2018-08-13T08:54:04.191Z,80.85
2018-08-13T08:55:04.117Z,80.46
2018-08-13T08:56:04.140Z,80.27
2018-08-13T08:57:04.271Z,80.66
2018-08-13T08:58:04.189Z,80.37
2018-08-13T08:59:04.186Z,79.69
2018-08-13T09:00:04.313Z,79.11
2018-08-13T09:01:04.258Z,79.21
2018-08-13T09:03:04.501Z,80.12
2018-08-13T09:04:04.280Z,78.86
2018-08-13T09:05:04.350Z,79.44
2018-08-13T09:06:04.379Z,79.06
2018-08-13T09:07:04.326Z,79.25
2018-08-13T09:08:04.416Z,78.38
2018-08-13T09:09:04.421Z,77.46
2018-08-13T09:10:04.384Z,78.13
2018-08-13T09:11:04.399Z,77.42
2018-08-13T09:12:04.420Z,77.51
2018-08-13T09:13:04.511Z,77.51
2018-08-13T09:14:04.458Z,78.38
2018-08-13T09:15:04.508Z,77.84
2018-08-13T09:17:04.529Z,76.40
2018-08-13T09:18:04.578Z,76.84
2018-08-13T09:19:04.593Z,76.84
2018-08-13T09:20:04.561Z,77.51
2018-08-13T09:21:04.578Z,77.13
2018-08-13T09:22:04.608Z,76.61
2018-08-13T09:23:04.622Z,77.51
2018-08-13T09:24:04.638Z,77.71
2018-08-13T09:25:04.654Z,77.23
2018-08-13T09:26:04.670Z,76.07
2018-08-13T09:27:04.691Z,76.75
2018-08-13T09:28:04.709Z,76.26
2018-08-13T09:29:04.799Z,75.65
2018-08-13T09:30:04.754Z,76.55
2018-08-13T09:31:04.761Z,76.17
2018-08-13T09:32:04.775Z,76.36
2018-08-13T09:33:05.098Z,76.61
2018-08-13T09:34:04.846Z,76.45
2018-08-13T09:35:04.829Z,76.07
2018-08-13T09:36:04.848Z,75.97
2018-08-13T09:37:04.860Z,76.17
2018-08-13T09:38:04.889Z,76.45
2018-08-13T09:39:04.897Z,76.65
2018-08-13T09:40:04.920Z,75.43
2018-08-13T09:41:04.933Z,75.59
2018-08-13T09:42:04.955Z,75.49
2018-08-13T09:43:04.969Z,75.88
2018-08-13T09:44:05.963Z,75.68
2018-08-13T09:45:05.006Z,76.17
2018-08-13T09:46:05.135Z,76.65
2018-08-13T09:47:05.053Z,75.62
2018-08-13T09:48:05.063Z,75.24
2018-08-13T09:49:05.075Z,76.01
2018-08-13T09:50:05.093Z,75.34
2018-08-13T09:51:05.111Z,75.72
2018-08-13T09:52:05.129Z,75.68
2018-08-13T09:53:05.286Z,75.88
2018-08-13T09:54:05.897Z,76.26
2018-08-13T09:55:05.182Z,76.40
2018-08-13T09:56:05.203Z,75.43
2018-08-13T09:57:05.218Z,76.01
2018-08-13T09:58:05.236Z,75.62
2018-08-13T09:59:05.252Z,75.62
2018-08-13T10:00:05.274Z,75.05
2018-08-13T10:01:05.293Z,74.76
2018-08-13T10:02:05.317Z,74.95
2018-08-13T10:03:05.332Z,74.76
2018-08-13T10:04:05.345Z,74.99
2018-08-13T10:05:05.453Z,74.85
2018-08-13T10:06:05.386Z,75.18
2018-08-13T10:07:05.397Z,73.73
2018-08-13T10:08:05.427Z,73.28
2018-08-13T10:09:05.474Z,73.28
2018-08-13T10:10:05.470Z,73.19
2018-08-13T10:11:05.600Z,73.38
2018-08-13T10:12:05.503Z,73.48
2018-08-13T10:13:05.523Z,73.00
2018-08-13T10:14:05.522Z,73.00
2018-08-13T10:15:05.544Z,73.19
2018-08-13T10:16:05.558Z,72.06
2018-08-13T10:17:05.576Z,71.39
2018-08-13T10:18:05.599Z,70.46
2018-08-13T10:19:05.613Z,69.59
2018-08-13T10:20:05.639Z,69.49
2018-08-13T10:21:05.650Z,69.40
2018-08-13T10:22:05.670Z,69.24
2018-08-13T10:23:05.688Z,69.17
2018-08-13T10:24:05.705Z,69.08
2018-08-13T10:25:05.723Z,68.30
2018-08-13T10:26:05.744Z,68.40
2018-08-13T10:27:05.760Z,67.33
2018-08-13T10:28:05.790Z,66.56
2018-08-13T10:29:05.805Z,66.27
2018-08-13T10:30:05.817Z,65.98
2018-08-13T10:31:06.010Z,65.98
2018-08-13T10:32:05.853Z,65.50
2018-08-13T10:33:05.878Z,65.92
2018-08-13T10:34:05.893Z,65.63
2018-08-13T10:35:05.911Z,65.17
2018-08-13T10:36:05.930Z,64.47
2018-08-13T10:37:05.949Z,65.08
2018-08-13T10:38:05.971Z,63.62
2018-08-13T10:39:05.990Z,63.59
2018-08-13T10:40:06.006Z,65.05
2018-08-13T10:41:06.026Z,64.27
2018-08-13T10:42:06.049Z,63.79
2018-08-13T10:43:06.064Z,64.66
2018-08-13T10:44:06.083Z,65.24
2018-08-13T10:45:06.106Z,64.66
2018-08-13T10:46:06.121Z,63.69
2018-08-13T10:47:06.140Z,64.20
2018-08-13T10:48:06.156Z,63.62
2018-08-13T10:49:06.185Z,63.72
2018-08-13T10:50:06.206Z,64.20
2018-08-13T10:51:06.216Z,63.72
2018-08-13T10:52:06.233Z,64.30
2018-08-13T10:53:06.271Z,63.89
2018-08-13T10:54:06.280Z,64.37
2018-08-13T10:55:06.325Z,63.89
2018-08-13T10:56:06.317Z,64.85
2018-08-13T10:57:06.327Z,63.98
2018-08-13T10:58:06.348Z,64.27
2018-08-13T10:59:06.363Z,64.66
2018-08-13T11:00:06.382Z,64.24
2018-08-13T11:01:06.400Z,64.72
2018-08-13T11:02:06.422Z,65.30
2018-08-13T11:03:06.451Z,65.30
2018-08-13T11:04:06.465Z,65.01
2018-08-13T11:05:06.475Z,65.05
2018-08-13T11:06:06.495Z,64.62
2018-08-13T11:07:06.511Z,64.75
2018-08-13T11:08:06.531Z,64.43
2018-08-13T11:09:06.551Z,64.04
2018-08-13T11:10:06.575Z,64.27
2018-08-13T11:11:06.589Z,63.59
2018-08-13T11:12:06.614Z,63.79
2018-08-13T11:13:06.625Z,63.53
2018-08-13T11:14:06.644Z,63.37
2018-08-13T11:15:06.663Z,61.91
2018-08-13T11:16:06.678Z,61.91
2018-08-13T11:17:06.711Z,61.52
2018-08-13T11:18:06.719Z,62.10
2018-08-13T11:19:06.748Z,62.88
2018-08-13T11:20:06.765Z,62.01
2018-08-13T11:21:06.781Z,61.07
2018-08-13T11:22:06.797Z,60.88
2018-08-13T11:23:06.817Z,60.78
2018-08-13T11:24:06.833Z,60.39
2018-08-13T11:25:06.856Z,60.39
2018-08-13T11:26:06.876Z,60.13
2018-08-13T11:27:06.892Z,61.17
2018-08-13T11:28:06.915Z,60.78
2018-08-13T11:29:06.936Z,61.65
2018-08-13T11:30:06.961Z,62.49
2018-08-13T11:31:07.025Z,63.85
2018-08-13T11:32:06.997Z,63.65
2018-08-13T11:33:07.016Z,63.65
2018-08-13T11:34:07.032Z,62.88
2018-08-13T11:35:07.052Z,62.49
2018-08-13T11:36:07.123Z,62.10
2018-08-13T11:37:07.090Z,62.79
2018-08-13T11:38:07.112Z,62.49
2018-08-13T11:39:07.153Z,63.56
2018-08-13T11:40:07.149Z,63.27
2018-08-13T11:41:07.172Z,62.91
2018-08-13T11:42:07.190Z,62.52
2018-08-13T11:43:07.213Z,62.69
2018-08-13T11:44:07.339Z,62.88
2018-08-13T11:45:07.251Z,63.56
2018-08-13T11:46:07.270Z,62.98
2018-08-13T11:47:07.492Z,63.37
2018-08-13T11:48:07.309Z,61.82
2018-08-13T11:49:07.330Z,61.72
2018-08-13T11:50:07.358Z,62.62
2018-08-13T11:51:07.367Z,61.85
2018-08-13T11:52:07.389Z,61.94
2018-08-13T11:53:07.406Z,61.75
2018-08-13T11:54:07.440Z,61.85
2018-08-13T11:55:07.483Z,62.23
2018-08-13T11:56:07.469Z,62.88
2018-08-13T11:57:07.484Z,63.46
2018-08-13T11:58:07.513Z,64.14
2018-08-13T11:59:07.538Z,63.17
2018-08-13T12:00:07.547Z,63.01
2018-08-13T12:01:07.644Z,62.23
2018-08-13T12:02:07.627Z,63.10
2018-08-13T12:03:07.687Z,61.94
2018-08-13T12:04:07.642Z,61.10
2018-08-13T12:05:07.644Z,61.39
2018-08-13T12:06:07.665Z,60.74
2018-08-13T12:07:07.712Z,60.35
2018-08-13T12:08:07.705Z,58.93
2018-08-13T12:09:08.795Z,59.41
2018-08-13T12:10:08.648Z,60.28
2018-08-13T12:11:07.798Z,58.93
2018-08-13T12:12:07.857Z,58.73
2018-08-13T12:13:07.806Z,59.41
2018-08-13T12:14:07.974Z,58.93
2018-08-13T12:15:07.843Z,59.03
2018-08-13T12:16:07.877Z,58.90
2018-08-13T12:17:07.938Z,59.28
2018-08-13T12:18:07.927Z,59.77
2018-08-13T12:19:07.937Z,60.25
2018-08-13T12:20:07.957Z,61.29
2018-08-13T12:21:08.003Z,61.19
2018-08-13T12:22:07.986Z,61.39
2018-08-13T12:23:09.015Z,60.42
2018-08-13T12:24:08.028Z,60.55
2018-08-13T12:25:08.114Z,60.87
2018-08-13T12:26:08.078Z,60.48
2018-08-13T12:27:08.094Z,60.16
2018-08-13T12:28:08.107Z,60.84
2018-08-13T12:29:08.132Z,61.13
2018-08-13T12:30:08.168Z,61.75
2018-08-13T12:31:08.177Z,63.01
2018-08-13T12:32:08.187Z,62.82
2018-08-13T12:33:08.209Z,63.10
2018-08-13T12:34:08.236Z,62.33
2018-08-13T12:35:08.252Z,62.33
2018-08-13T12:36:08.269Z,61.85
2018-08-13T12:37:08.289Z,62.52
2018-08-13T12:38:08.310Z,61.78
2018-08-13T12:39:08.336Z,60.91
2018-08-13T12:40:08.997Z,61.19
2018-08-13T12:41:08.897Z,60.71
2018-08-13T12:42:08.396Z,60.45
2018-08-13T12:43:08.412Z,60.23
2018-08-13T12:44:08.439Z,59.87
2018-08-13T12:45:08.457Z,60.25
2018-08-13T12:46:08.474Z,59.94
2018-08-13T12:47:08.561Z,59.67
2018-08-13T12:48:08.523Z,59.67
2018-08-13T12:49:08.535Z,60.35
2018-08-13T12:50:08.866Z,59.97
2018-08-13T12:51:08.660Z,60.45
2018-08-13T12:52:08.599Z,61.22
2018-08-13T12:53:08.623Z,60.23
2018-08-13T12:54:08.646Z,60.45
2018-08-13T12:55:08.660Z,60.42
2018-08-13T12:56:08.678Z,61.00
2018-08-13T12:57:08.738Z,60.71
2018-08-13T12:58:08.724Z,62.62
2018-08-13T12:59:08.748Z,62.23
2018-08-13T13:00:08.844Z,64.43
2018-08-13T13:01:08.787Z,64.34
2018-08-13T13:03:08.818Z,64.89
2018-08-13T13:04:08.843Z,65.17
2018-08-13T13:05:08.856Z,65.08
2018-08-13T13:06:08.884Z,64.92
2018-08-13T13:07:08.917Z,65.01
2018-08-13T13:08:08.933Z,63.98
2018-08-13T13:09:08.932Z,63.40
2018-08-13T13:11:09.180Z,63.49
2018-08-13T13:12:09.048Z,64.65
2018-08-13T13:14:09.116Z,65.50